Terminal Aerodrome Forecast
Issued by NWS

Home | Current Version | Previous Version | Graphics & Text | Print | Product List | Glossary On
Versions: 1 2 3 4 5 6 7 8 9 10 11 12 13 14 15 16 17 18 19 20
000
FTUS43 KABR 241510 AAA
TAFATY
TAF AMD
KATY 241510Z 2415/2512 15017G24KT P6SM BKN040
     FM242100 17015KT P6SM -SHRA VCTS BKN020 OVC060CB
     FM250100 18009KT P6SM BKN150
     FM250500 23010G17KT P6SM FEW200=

USA.gov is the U.S. government's official web portal to all federal, state and local government web resources and services.